Portada
METAR-TAF:

METAR-TAF

Aeroports :

Rarotonga, Illes Cook

latitud: 21-12S, longitud: 159-49W, altitud: 7 m

Observació

L'informe es va fer fa 39 minuts, a les 19:30 UTC
Vent 6 kt del Est/Nord-Est
Temperatura 25°C
Humitat 79%
Pressió 1017 hPa
Visibilitat 10 km o més

METAR: NCRG 251930Z AUTO 07006KT 9999 BKN040/// 25/21 Q1017

Hora: 10:09 (20:09 UTC)

Pronòstic

L'informe es va fer fa 3 hores i 7 minuts, a les 17:02 UTC
Pronòstic vàlid del 25 a les 18 UTC al 26 a les 18 UTC
Vent 8 kt del Sud
Visibilitat 10 km o més
Núvols disperses a una alçada de 2000 ft

TAF: NCRG 251702Z 2518/2618 18008KT 9999 SCT020

Observacions i pronòstics meteorològics de més de 4000 aeroports (METAR i TAF).

Les estacions disponibles són els punts grocs i vermells al mapa.

Posi el ratolí al punt desitjat per veure el nom de l'estació.

Feu clic per veure les observacions i els pronòstics meteorològics.

Per canviar el mapa: feu clic els botons verds amb una creu de color negre per apropar; al botó verd amb un guió per allunyar la imatge; o en les fletxes verdes per a mapes adjacents.


METAR-TAF: